createdAt,value
2019-04-16T00:00:21.176Z,100971.15
2019-04-16T00:02:53.474Z,100973.26
2019-04-16T00:05:28.472Z,100966.15
2019-04-16T00:08:00.413Z,100965.64
2019-04-16T00:11:03.718Z,100962.27
2019-04-16T00:13:36.183Z,100965.12
2019-04-16T00:16:04.846Z,100955.41
2019-04-16T00:18:33.537Z,100961.33
2019-04-16T00:21:30.532Z,100957.06
2019-04-16T00:24:10.661Z,100950.22
2019-04-16T00:26:39.402Z,100950.83
2019-04-16T00:29:08.149Z,100952.26
2019-04-16T00:31:37.754Z,100946.88
2019-04-16T00:34:06.529Z,100951.82
2019-04-16T00:36:35.231Z,100948.56
2019-04-16T00:39:05.670Z,100947.27
2019-04-16T00:41:34.369Z,100948.96
2019-04-16T00:44:03.060Z,100951.42
2019-04-16T00:46:31.717Z,100950.56
2019-04-16T00:49:00.377Z,100946.30
2019-04-16T00:51:29.213Z,100947.23
2019-04-16T00:53:57.876Z,100948.20
2019-04-16T00:56:26.567Z,100944.84
2019-04-16T00:58:55.246Z,100943.83
2019-04-16T01:01:24.313Z,100946.22
2019-04-16T01:03:52.966Z,100941.22
2019-04-16T01:06:21.623Z,100943.78
2019-04-16T01:08:54.924Z,100942.23
2019-04-16T01:11:20.736Z,100948.47
2019-04-16T01:13:49.702Z,100936.30
2019-04-16T01:16:18.451Z,100942.07
2019-04-16T01:18:47.074Z,100932.12
2019-04-16T01:21:15.807Z,100934.36
2019-04-16T01:23:48.351Z,100937.48
2019-04-16T01:26:14.851Z,100936.86
2019-04-16T01:28:50.119Z,100939.53
2019-04-16T01:31:29.318Z,100933.92
2019-04-16T01:34:18.154Z,100941.52
2019-04-16T01:37:05.633Z,100951.44
2019-04-16T01:39:34.957Z,100944.56
2019-04-16T01:42:03.708Z,100950.08
2019-04-16T01:44:32.415Z,100947.30
2019-04-16T01:47:03.944Z,100940.08
2019-04-16T01:49:31.788Z,100947.41
2019-04-16T01:52:00.471Z,100954.36
2019-04-16T01:54:29.131Z,100950.20
2019-04-16T01:56:59.886Z,100949.16
2019-04-16T01:59:28.595Z,100951.36
2019-04-16T02:01:57.253Z,100952.44
2019-04-16T02:04:25.929Z,100950.23
2019-04-16T02:06:57.113Z,100953.66
2019-04-16T02:09:25.102Z,100947.73
2019-04-16T02:11:53.822Z,100949.23
2019-04-16T02:14:22.631Z,100954.69
2019-04-16T02:16:55.709Z,100950.00
2019-04-16T02:19:21.770Z,100949.84
2019-04-16T02:21:50.545Z,100953.05
2019-04-16T02:24:19.461Z,100951.37
2019-04-16T02:26:48.200Z,100948.88
2019-04-16T02:29:16.862Z,100949.77
2019-04-16T02:31:47.916Z,100953.59
2019-04-16T02:34:15.941Z,100952.16
2019-04-16T02:36:44.629Z,100951.20
2019-04-16T02:39:13.360Z,100950.34
2019-04-16T02:41:42.033Z,100957.72
2019-04-16T02:44:15.977Z,100952.63
2019-04-16T02:46:41.103Z,100958.69
2019-04-16T02:49:09.771Z,100954.09
2019-04-16T02:51:43.460Z,100955.16
2019-04-16T02:54:17.907Z,100954.70
2019-04-16T02:56:56.646Z,100950.88
2019-04-16T02:59:28.581Z,100957.32
2019-04-16T03:02:04.919Z,100947.81
2019-04-16T03:04:38.508Z,100951.53
2019-04-16T03:07:07.553Z,100950.73
2019-04-16T03:09:39.812Z,100942.98
2019-04-16T03:12:06.713Z,100934.70
2019-04-16T03:14:35.426Z,100939.92
2019-04-16T03:17:14.770Z,100941.22
2019-04-16T03:19:44.625Z,100933.22
2019-04-16T03:22:13.296Z,100930.31
2019-04-16T03:24:42.075Z,100924.28
2019-04-16T03:27:10.774Z,100921.36
2019-04-16T03:29:39.495Z,100918.59
2019-04-16T03:32:12.796Z,100912.41
2019-04-16T03:34:38.565Z,100911.09
2019-04-16T03:37:07.449Z,100912.88
2019-04-16T03:39:36.208Z,100910.27
2019-04-16T03:42:05.229Z,100904.60
2019-04-16T03:44:37.187Z,100904.23
2019-04-16T03:47:04.408Z,100905.59
2019-04-16T03:49:33.072Z,100897.27
2019-04-16T03:52:04.864Z,100894.05
2019-04-16T03:54:32.433Z,100890.30
2019-04-16T03:57:02.180Z,100888.39
2019-04-16T03:59:31.584Z,100883.77
2019-04-16T04:02:00.255Z,100884.62
2019-04-16T04:04:30.050Z,100879.85
2019-04-16T04:06:58.820Z,100879.58
2019-04-16T04:09:27.564Z,100873.83
2019-04-16T04:11:56.227Z,100883.79
2019-04-16T04:14:25.022Z,100877.11
2019-04-16T04:16:53.690Z,100878.30
2019-04-16T04:19:22.357Z,100880.27
2019-04-16T04:21:53.759Z,100878.16
2019-04-16T04:24:21.465Z,100880.07
2019-04-16T04:26:50.168Z,100877.31
2019-04-16T04:29:20.757Z,100876.11
2019-04-16T04:31:49.244Z,100880.84
2019-04-16T04:34:17.935Z,100876.84
2019-04-16T04:36:46.684Z,100872.56
2019-04-16T04:39:16.190Z,100874.30
2019-04-16T04:41:44.968Z,100878.25
2019-04-16T04:44:13.658Z,100879.20
2019-04-16T04:46:43.198Z,100884.70
2019-04-16T04:49:12.703Z,100884.25
2019-04-16T04:51:43.420Z,100885.26
2019-04-16T04:54:11.784Z,100889.83
2019-04-16T04:56:40.467Z,100888.42
2019-04-16T04:59:09.132Z,100890.44
2019-04-16T05:01:37.817Z,100890.68
2019-04-16T05:04:21.213Z,100890.11
2019-04-16T05:06:50.293Z,100892.81
2019-04-16T05:09:18.945Z,100891.14
2019-04-16T05:11:49.460Z,100894.19
2019-04-16T05:14:18.060Z,100890.22
2019-04-16T05:16:46.719Z,100891.11
2019-04-16T05:19:15.727Z,100893.69
2019-04-16T05:21:44.549Z,100895.75
2019-04-16T05:24:13.221Z,100887.30
2019-04-16T05:26:41.908Z,100890.45
2019-04-16T05:29:16.115Z,100889.09
2019-04-16T05:31:42.635Z,100886.25
2019-04-16T05:34:11.833Z,100888.20
2019-04-16T05:36:40.521Z,100886.95
2019-04-16T05:39:09.942Z,100885.81
2019-04-16T05:41:38.834Z,100887.06
2019-04-16T05:44:07.500Z,100888.66
2019-04-16T05:46:38.350Z,100886.89
2019-04-16T05:49:06.554Z,100887.87
2019-04-16T05:51:35.518Z,100881.48
2019-04-16T05:54:16.892Z,100876.86
2019-04-16T05:56:55.544Z,100879.81
2019-04-16T05:59:23.033Z,100881.10
2019-04-16T06:02:09.052Z,100871.02
2019-04-16T06:04:37.737Z,100881.70
2019-04-16T06:07:07.693Z,100888.20
2019-04-16T06:09:36.582Z,100883.69
2019-04-16T06:12:05.841Z,100884.09
2019-04-16T06:14:49.541Z,100884.53
2019-04-16T06:17:35.182Z,100882.52
2019-04-16T06:20:21.317Z,100877.84
2019-04-16T06:23:14.965Z,100883.08
2019-04-16T06:25:57.122Z,100880.30
2019-04-16T06:28:45.224Z,100872.58
2019-04-16T06:31:24.105Z,100874.97
2019-04-16T06:34:03.922Z,100878.09
2019-04-16T06:36:49.018Z,100878.60
2019-04-16T06:39:32.422Z,100872.55
2019-04-16T06:42:14.846Z,100872.08
2019-04-16T06:44:57.783Z,100879.52
2019-04-16T06:47:54.662Z,100872.26
2019-04-16T06:50:39.540Z,100875.56
2019-04-16T06:53:19.610Z,100868.57
2019-04-16T06:55:59.584Z,100869.43
2019-04-16T06:58:51.217Z,100857.94
2019-04-16T07:01:42.069Z,100856.63
2019-04-16T07:04:17.569Z,100855.85
2019-04-16T07:07:07.848Z,100851.88
2019-04-16T07:09:41.745Z,100848.78
2019-04-16T07:12:13.927Z,100846.95
2019-04-16T07:14:45.608Z,100844.87
2019-04-16T07:17:13.009Z,100843.89
2019-04-16T07:19:42.128Z,100832.08
2019-04-16T07:22:11.992Z,100827.92
2019-04-16T07:24:40.869Z,100831.80
2019-04-16T07:27:09.835Z,100839.03
2019-04-16T07:29:46.182Z,100829.53
2019-04-16T07:32:31.216Z,100829.80
2019-04-16T07:35:37.118Z,100828.69
2019-04-16T07:38:15.381Z,100833.67
2019-04-16T07:41:02.010Z,100830.37
2019-04-16T07:43:48.849Z,100830.23
2019-04-16T07:46:54.818Z,100825.53
2019-04-16T07:49:31.595Z,100826.92
2019-04-16T07:52:12.302Z,100826.91
2019-04-16T07:55:02.498Z,100823.73
2019-04-16T07:57:31.318Z,100821.92
2019-04-16T08:00:00.453Z,100819.57
2019-04-16T08:02:29.417Z,100819.14
2019-04-16T08:04:58.100Z,100817.62
2019-04-16T08:07:26.763Z,100822.67
2019-04-16T08:09:55.452Z,100817.83
2019-04-16T08:12:30.453Z,100819.89
2019-04-16T08:14:54.833Z,100816.56
2019-04-16T08:17:23.549Z,100817.00
2019-04-16T08:19:55.140Z,100819.34
2019-04-16T08:22:23.396Z,100821.06
2019-04-16T08:24:59.539Z,100816.14
2019-04-16T08:27:27.632Z,100819.45
2019-04-16T08:30:01.987Z,100810.67
2019-04-16T08:32:26.684Z,100814.27
2019-04-16T08:34:55.378Z,100814.45
2019-04-16T08:37:24.043Z,100810.64
2019-04-16T08:39:52.752Z,100803.25
2019-04-16T08:42:24.241Z,100793.37
2019-04-16T08:44:51.826Z,100796.75
2019-04-16T08:47:20.520Z,100797.38
2019-04-16T08:49:53.658Z,100800.28
2019-04-16T08:52:19.618Z,100799.87
2019-04-16T08:54:50.432Z,100797.16
2019-04-16T08:57:18.708Z,100797.31
2019-04-16T08:59:47.979Z,100797.46
2019-04-16T09:02:16.675Z,100798.46
2019-04-16T09:04:45.351Z,100794.98
2019-04-16T09:07:31.982Z,100792.59
2019-04-16T09:10:10.140Z,100789.51
2019-04-16T09:12:31.986Z,100790.38
2019-04-16T09:15:00.712Z,100785.82
2019-04-16T09:17:39.022Z,100784.55
2019-04-16T09:20:13.253Z,100787.65
2019-04-16T09:22:49.225Z,100781.06
2019-04-16T09:25:29.832Z,100779.52
2019-04-16T09:28:09.886Z,100770.76
2019-04-16T09:31:01.180Z,100776.56
2019-04-16T09:33:34.505Z,100764.01
2019-04-16T09:36:08.948Z,100767.24
2019-04-16T09:38:45.455Z,100765.77
2019-04-16T09:41:22.819Z,100760.34
2019-04-16T09:43:57.392Z,100765.28
2019-04-16T09:46:49.633Z,100764.18
2019-04-16T09:48:57.193Z,100760.75
2019-04-16T09:51:26.380Z,100754.53
2019-04-16T09:53:55.456Z,100752.47
2019-04-16T09:56:30.569Z,100746.01
2019-04-16T09:59:04.057Z,100741.97
2019-04-16T10:01:38.806Z,100741.97
2019-04-16T10:04:08.737Z,100738.34
2019-04-16T10:06:37.427Z,100730.41
2019-04-16T10:09:07.044Z,100729.80
2019-04-16T10:11:36.447Z,100733.58
2019-04-16T10:14:05.826Z,100741.86
2019-04-16T10:16:34.636Z,100725.17
2019-04-16T10:19:07.646Z,100726.86
2019-04-16T10:21:33.915Z,100720.91
2019-04-16T10:24:33.882Z,100721.07
2019-04-16T10:27:04.458Z,100713.88
2019-04-16T10:29:33.223Z,100711.09
2019-04-16T10:32:02.039Z,100706.23
2019-04-16T10:34:30.678Z,100703.83
2019-04-16T10:36:59.376Z,100706.00
2019-04-16T10:39:47.147Z,100704.14
2019-04-16T10:42:36.763Z,100706.53
2019-04-16T10:45:21.047Z,100704.09
2019-04-16T10:47:56.337Z,100699.41
2019-04-16T10:50:45.802Z,100695.07
2019-04-16T10:53:22.651Z,100695.09
2019-04-16T10:56:12.322Z,100692.36
2019-04-16T10:58:57.533Z,100692.26
2019-04-16T11:01:37.622Z,100689.70
2019-04-16T11:04:14.824Z,100686.96
2019-04-16T11:06:46.392Z,100682.59
2019-04-16T11:09:15.641Z,100684.70
2019-04-16T11:11:45.356Z,100681.48
2019-04-16T11:14:14.257Z,100681.63
2019-04-16T11:16:45.350Z,100680.88
2019-04-16T11:19:14.023Z,100680.48
2019-04-16T11:21:42.704Z,100683.79
2019-04-16T11:24:11.585Z,100678.00
2019-04-16T11:26:40.511Z,100674.06
2019-04-16T11:29:09.229Z,100666.70
2019-04-16T11:31:38.357Z,100682.52
2019-04-16T11:34:07.853Z,100663.84
2019-04-16T11:36:37.154Z,100659.54
2019-04-16T11:39:09.242Z,100665.34
2019-04-16T11:41:38.041Z,100662.50
2019-04-16T11:44:14.795Z,100660.74
2019-04-16T11:46:37.462Z,100657.30
2019-04-16T11:49:06.731Z,100655.08
2019-04-16T11:51:35.475Z,100660.27
2019-04-16T11:54:04.275Z,100659.09
2019-04-16T11:56:32.978Z,100658.80
2019-04-16T11:59:01.645Z,100657.80
2019-04-16T12:01:45.972Z,100658.17
2019-04-16T12:04:33.746Z,100653.77
2019-04-16T12:07:09.970Z,100656.94
2019-04-16T12:09:56.446Z,100657.06
2019-04-16T12:12:29.262Z,100655.62
2019-04-16T12:15:06.823Z,100647.17
2019-04-16T12:17:54.557Z,100654.37
2019-04-16T12:20:42.361Z,100643.20
2019-04-16T12:23:36.187Z,100640.54
2019-04-16T12:26:19.303Z,100642.67
2019-04-16T12:28:54.111Z,100642.36
2019-04-16T12:31:40.478Z,100632.98
2019-04-16T12:34:14.912Z,100634.57
2019-04-16T12:36:55.244Z,100630.98
2019-04-16T12:39:41.163Z,100637.95
2019-04-16T12:42:30.985Z,100637.11
2019-04-16T12:45:17.509Z,100638.48
2019-04-16T12:48:11.333Z,100623.16
2019-04-16T12:50:54.151Z,100636.67
2019-04-16T12:53:41.914Z,100635.53
2019-04-16T12:56:48.014Z,100630.76
2019-04-16T12:59:38.574Z,100627.92
2019-04-16T13:02:38.510Z,100628.78
2019-04-16T13:05:12.936Z,100627.30
2019-04-16T13:08:09.875Z,100621.81
2019-04-16T13:10:57.585Z,100614.86
2019-04-16T13:13:42.708Z,100616.16
2019-04-16T13:16:28.975Z,100614.83
2019-04-16T13:19:15.314Z,100611.73
2019-04-16T13:21:59.808Z,100611.53
2019-04-16T13:24:33.031Z,100607.98
2019-04-16T13:27:06.221Z,100600.20
2019-04-16T13:29:34.943Z,100601.27
2019-04-16T13:32:03.853Z,100601.38
2019-04-16T13:34:32.670Z,100597.16
2019-04-16T13:37:01.353Z,100602.50
2019-04-16T13:39:52.896Z,100596.89
2019-04-16T13:42:21.563Z,100605.33
2019-04-16T13:45:16.932Z,100605.19
2019-04-16T13:47:45.662Z,100601.47
2019-04-16T13:50:40.853Z,100594.75
2019-04-16T13:53:29.924Z,100595.23
2019-04-16T13:56:26.545Z,100592.13
2019-04-16T13:59:13.600Z,100603.84
2019-04-16T14:01:59.144Z,100590.38
2019-04-16T14:04:31.740Z,100609.42
2019-04-16T14:06:58.356Z,100601.51
2019-04-16T14:09:27.127Z,100590.63
2019-04-16T14:11:56.275Z,100590.94
2019-04-16T14:14:26.058Z,100583.76
2019-04-16T14:16:54.731Z,100581.75
2019-04-16T14:19:23.473Z,100579.48
2019-04-16T14:21:52.176Z,100583.29
2019-04-16T14:24:20.837Z,100582.47
2019-04-16T14:26:49.545Z,100583.64
2019-04-16T14:29:18.235Z,100586.72
2019-04-16T14:31:48.932Z,100594.52
2019-04-16T14:34:38.319Z,100587.80
2019-04-16T14:37:07.037Z,100584.47
2019-04-16T14:39:38.574Z,100577.01
2019-04-16T14:42:07.374Z,100587.17
2019-04-16T14:44:43.306Z,100579.55
2019-04-16T14:47:12.176Z,100582.91
2019-04-16T14:49:40.849Z,100591.03
2019-04-16T14:52:09.585Z,100586.29
2019-04-16T14:54:57.856Z,100581.53
2019-04-16T14:57:26.596Z,100581.00
2019-04-16T15:00:00.578Z,100592.47
2019-04-16T15:02:46.255Z,100588.14
2019-04-16T15:05:34.068Z,100585.37
2019-04-16T15:08:29.534Z,100574.80
2019-04-16T15:11:14.670Z,100575.53
2019-04-16T15:13:48.805Z,100581.86
2019-04-16T15:16:33.632Z,100588.45
2019-04-16T15:19:20.542Z,100584.34
2019-04-16T15:22:08.316Z,100593.35
2019-04-16T15:24:56.144Z,100588.75
2019-04-16T15:27:56.007Z,100588.88
2019-04-16T15:30:42.396Z,100585.78
2019-04-16T15:33:21.378Z,100584.52
2019-04-16T15:35:54.799Z,100588.02
2019-04-16T15:38:40.055Z,100579.19
2019-04-16T15:41:46.092Z,100585.41
2019-04-16T15:44:24.557Z,100587.27
2019-04-16T15:47:00.524Z,100589.48
2019-04-16T15:49:55.701Z,100582.20
2019-04-16T15:52:28.703Z,100594.55
2019-04-16T15:55:16.348Z,100588.27
2019-04-16T15:57:51.254Z,100594.74
2019-04-16T16:00:43.207Z,100596.65
2019-04-16T16:03:29.888Z,100599.09
2019-04-16T16:06:08.024Z,100597.38
2019-04-16T16:08:42.246Z,100602.58
2019-04-16T16:11:19.204Z,100595.19
2019-04-16T16:13:47.963Z,100591.83
2019-04-16T16:16:18.088Z,100608.38
2019-04-16T16:18:47.049Z,100603.66
2019-04-16T16:21:15.790Z,100606.77
2019-04-16T16:23:44.459Z,100612.00
2019-04-16T16:26:13.199Z,100610.86
2019-04-16T16:28:41.972Z,100613.73
2019-04-16T16:31:10.655Z,100605.85
2019-04-16T16:33:39.693Z,100610.29
2019-04-16T16:36:08.372Z,100606.45
2019-04-16T16:38:37.041Z,100616.92
2019-04-16T16:41:05.789Z,100615.06
2019-04-16T16:43:34.494Z,100622.25
2019-04-16T16:46:08.512Z,100631.12
2019-04-16T16:48:37.209Z,100632.18
2019-04-16T16:51:05.903Z,100635.56
2019-04-16T16:53:48.723Z,100622.50
2019-04-16T16:56:25.916Z,100628.30
2019-04-16T16:59:03.985Z,100638.55
2019-04-16T17:02:08.569Z,100635.62
2019-04-16T17:04:38.427Z,100644.35
2019-04-16T17:07:07.412Z,100643.32
2019-04-16T17:09:36.466Z,100644.72
2019-04-16T17:12:05.338Z,100649.80
2019-04-16T17:14:37.763Z,100651.70
2019-04-16T17:17:13.451Z,100656.47
2019-04-16T17:19:35.407Z,100652.41
2019-04-16T17:22:04.187Z,100656.25
2019-04-16T17:24:32.859Z,100656.79
2019-04-16T17:27:01.617Z,100652.67
2019-04-16T17:29:30.412Z,100657.22
2019-04-16T17:31:59.100Z,100669.30
2019-04-16T17:34:27.786Z,100667.22
2019-04-16T17:36:56.585Z,100664.73
2019-04-16T17:39:43.380Z,100674.98
2019-04-16T17:42:12.324Z,100674.14
2019-04-16T17:45:06.243Z,100680.31
2019-04-16T17:47:56.424Z,100679.38
2019-04-16T17:50:39.618Z,100682.34
2019-04-16T17:53:20.491Z,100689.26
2019-04-16T17:56:08.207Z,100697.02
2019-04-16T17:58:58.330Z,100695.23
2019-04-16T18:01:44.487Z,100698.81
2019-04-16T18:04:26.687Z,100703.13
2019-04-16T18:07:13.395Z,100715.50
2019-04-16T18:09:45.690Z,100716.02
2019-04-16T18:12:36.440Z,100713.70
2019-04-16T18:15:16.901Z,100722.73
2019-04-16T18:18:05.519Z,100723.75
2019-04-16T18:20:57.277Z,100725.03
2019-04-16T18:23:27.796Z,100726.87
2019-04-16T18:26:21.582Z,100736.66
2019-04-16T18:29:01.471Z,100741.94
2019-04-16T18:31:55.845Z,100750.58
2019-04-16T18:34:43.485Z,100753.16
2019-04-16T18:37:30.100Z,100759.61
2019-04-16T18:40:20.626Z,100758.27
2019-04-16T18:43:07.190Z,100768.33
2019-04-16T18:46:04.319Z,100770.76
2019-04-16T18:48:35.024Z,100774.97
2019-04-16T18:51:03.871Z,100775.48
2019-04-16T18:53:32.540Z,100781.40
2019-04-16T18:56:01.237Z,100782.70
2019-04-16T18:58:30.003Z,100791.88
2019-04-16T19:01:01.975Z,100796.49
2019-04-16T19:03:31.000Z,100800.02
2019-04-16T19:05:59.952Z,100805.33
2019-04-16T19:08:40.536Z,100806.25
2019-04-16T19:10:59.753Z,100806.69
2019-04-16T19:13:28.411Z,100808.96
2019-04-16T19:15:57.092Z,100811.95
2019-04-16T19:18:25.810Z,100813.19
2019-04-16T19:20:54.560Z,100816.78
2019-04-16T19:23:23.222Z,100820.24
2019-04-16T19:25:55.342Z,100823.42
2019-04-16T19:28:24.286Z,100826.98
2019-04-16T19:30:53.002Z,100830.02
2019-04-16T19:33:21.704Z,100836.92
2019-04-16T19:35:51.926Z,100840.36
2019-04-16T19:38:20.896Z,100846.20
2019-04-16T19:40:50.890Z,100847.18
2019-04-16T19:43:19.989Z,100844.25
2019-04-16T19:45:48.695Z,100848.04
2019-04-16T19:48:19.516Z,100848.34
2019-04-16T19:50:47.783Z,100855.18
2019-04-16T19:53:16.540Z,100852.92
2019-04-16T19:55:45.973Z,100855.84
2019-04-16T19:58:15.251Z,100858.50
2019-04-16T20:00:44.010Z,100860.87
2019-04-16T20:03:12.676Z,100867.30
2019-04-16T20:05:41.384Z,100866.77
2019-04-16T20:08:10.338Z,100869.31
2019-04-16T20:10:39.017Z,100869.69
2019-04-16T20:13:07.995Z,100872.72
2019-04-16T20:15:36.660Z,100874.11
2019-04-16T20:18:07.261Z,100877.23
2019-04-16T20:20:36.088Z,100869.80
2019-04-16T20:23:05.059Z,100879.41
2019-04-16T20:25:33.688Z,100874.91
2019-04-16T20:28:02.425Z,100882.02
2019-04-16T20:30:31.029Z,100882.11
2019-04-16T20:32:59.739Z,100876.48
2019-04-16T20:35:28.420Z,100885.23
2019-04-16T20:37:57.114Z,100884.98
2019-04-16T20:40:25.777Z,100881.28
2019-04-16T20:42:54.805Z,100886.68
2019-04-16T20:45:23.511Z,100881.74
2019-04-16T20:47:52.203Z,100885.78
2019-04-16T20:50:21.533Z,100883.98
2019-04-16T20:52:50.314Z,100890.41
2019-04-16T20:57:46.924Z,100887.69
2019-04-16T21:00:21.374Z,100897.97
2019-04-16T21:02:51.105Z,100893.88
2019-04-16T21:05:22.272Z,100892.73
2019-04-16T21:07:50.893Z,100896.89
2019-04-16T21:10:19.580Z,100897.89
2019-04-16T21:12:48.247Z,100904.56
2019-04-16T21:15:16.905Z,100902.48
2019-04-16T21:17:45.631Z,100902.33
2019-04-16T21:20:19.305Z,100904.34
2019-04-16T21:22:44.677Z,100909.70
2019-04-16T21:25:13.995Z,100906.55
2019-04-16T21:28:00.774Z,100905.42
2019-04-16T21:30:29.451Z,100905.56
2019-04-16T21:33:12.782Z,100918.30
2019-04-16T21:35:44.142Z,100918.94
2019-04-16T21:38:34.762Z,100928.89
2019-04-16T21:41:03.422Z,100924.49
2019-04-16T21:43:32.185Z,100926.35
2019-04-16T21:46:00.874Z,100924.66
2019-04-16T21:48:29.563Z,100935.79
2019-04-16T21:50:58.225Z,100934.50
2019-04-16T21:53:27.885Z,100933.19
2019-04-16T21:55:57.459Z,100932.99
2019-04-16T21:58:26.141Z,100934.20
2019-04-16T22:01:04.474Z,100937.69
2019-04-16T22:03:32.258Z,100940.42
2019-04-16T22:06:01.003Z,100937.12
2019-04-16T22:08:30.375Z,100937.68
2019-04-16T22:10:59.097Z,100933.91
2019-04-16T22:13:27.789Z,100932.84
2019-04-16T22:15:58.060Z,100937.68
2019-04-16T22:18:26.859Z,100938.81
2019-04-16T22:20:55.984Z,100944.93
2019-04-16T22:23:24.807Z,100942.40
2019-04-16T22:25:53.455Z,100938.30
2019-04-16T22:28:22.148Z,100943.54
2019-04-16T22:30:51.490Z,100942.22
2019-04-16T22:33:20.947Z,100939.72
2019-04-16T22:35:49.644Z,100945.66
2019-04-16T22:38:18.306Z,100947.11
2019-04-16T22:41:06.305Z,100950.19
2019-04-16T22:44:03.446Z,100954.33
2019-04-16T22:46:37.519Z,100945.52
2019-04-16T22:49:06.172Z,100949.10
2019-04-16T22:51:34.912Z,100959.53
2019-04-16T22:54:03.673Z,100952.83
2019-04-16T22:56:46.032Z,100960.05
2019-04-16T22:59:14.741Z,100959.29
2019-04-16T23:01:44.903Z,100961.84
2019-04-16T23:04:14.260Z,100960.99
2019-04-16T23:06:43.035Z,100965.95
2019-04-16T23:09:16.776Z,100972.42
2019-04-16T23:11:42.078Z,100966.91
2019-04-16T23:14:10.770Z,100965.63
2019-04-16T23:16:42.734Z,100963.80
2019-04-16T23:19:09.863Z,100969.92
2019-04-16T23:21:42.301Z,100974.43
2019-04-16T23:24:09.046Z,100970.64
2019-04-16T23:26:37.814Z,100973.03
2019-04-16T23:29:06.802Z,100970.98
2019-04-16T23:31:35.836Z,100973.91
2019-04-16T23:34:06.415Z,100979.34
2019-04-16T23:36:34.988Z,100976.81
2019-04-16T23:39:05.507Z,100977.69
2019-04-16T23:41:34.476Z,100979.81
2019-04-16T23:44:27.323Z,100975.45
2019-04-16T23:47:17.974Z,100975.75
2019-04-16T23:49:52.318Z,100983.27
2019-04-16T23:52:28.732Z,100980.59
2019-04-16T23:55:10.243Z,100978.86
2019-04-16T23:57:56.700Z,100980.93
